sensor_id;sensor_type;location;lat;lon;timestamp;P1;durP1;ratioP1;P2;durP2;ratioP2
59824;SDS011;45703;50.898;6.054;2023-05-10T00:00:56;10.65;;;5.50;;
59824;SDS011;45703;50.898;6.054;2023-05-10T00:03:22;10.35;;;5.50;;
59824;SDS011;45703;50.898;6.054;2023-05-10T00:05:47;10.38;;;5.90;;
59824;SDS011;45703;50.898;6.054;2023-05-10T00:08:13;10.82;;;5.82;;
59824;SDS011;45703;50.898;6.054;2023-05-10T00:10:38;10.30;;;5.32;;
59824;SDS011;45703;50.898;6.054;2023-05-10T00:13:03;12.50;;;6.07;;
59824;SDS011;45703;50.898;6.054;2023-05-10T00:15:29;13.15;;;6.57;;
59824;SDS011;45703;50.898;6.054;2023-05-10T00:17:55;13.80;;;6.50;;
59824;SDS011;45703;50.898;6.054;2023-05-10T00:20:21;13.32;;;8.10;;
59824;SDS011;45703;50.898;6.054;2023-05-10T00:22:47;12.68;;;6.40;;
59824;SDS011;45703;50.898;6.054;2023-05-10T00:25:12;12.80;;;7.28;;
59824;SDS011;45703;50.898;6.054;2023-05-10T00:27:37;14.23;;;7.72;;
59824;SDS011;45703;50.898;6.054;2023-05-10T00:30:03;14.57;;;7.72;;
59824;SDS011;45703;50.898;6.054;2023-05-10T00:32:29;14.05;;;7.47;;
59824;SDS011;45703;50.898;6.054;2023-05-10T00:34:54;15.07;;;8.15;;
59824;SDS011;45703;50.898;6.054;2023-05-10T00:37:20;14.68;;;8.32;;
59824;SDS011;45703;50.898;6.054;2023-05-10T00:39:45;14.27;;;8.02;;
59824;SDS011;45703;50.898;6.054;2023-05-10T00:42:10;13.70;;;8.10;;
59824;SDS011;45703;50.898;6.054;2023-05-10T00:44:36;14.20;;;7.30;;
59824;SDS011;45703;50.898;6.054;2023-05-10T00:47:01;16.50;;;8.55;;
59824;SDS011;45703;50.898;6.054;2023-05-10T00:49:27;13.82;;;7.80;;
59824;SDS011;45703;50.898;6.054;2023-05-10T00:51:53;14.48;;;8.27;;
59824;SDS011;45703;50.898;6.054;2023-05-10T00:54:19;14.27;;;7.50;;
59824;SDS011;45703;50.898;6.054;2023-05-10T00:56:44;16.48;;;8.45;;
59824;SDS011;45703;50.898;6.054;2023-05-10T00:59:14;16.67;;;9.60;;
59824;SDS011;45703;50.898;6.054;2023-05-10T01:01:43;16.10;;;9.27;;
59824;SDS011;45703;50.898;6.054;2023-05-10T01:04:10;15.93;;;9.55;;
59824;SDS011;45703;50.898;6.054;2023-05-10T01:06:40;17.05;;;9.45;;
59824;SDS011;45703;50.898;6.054;2023-05-10T01:09:06;16.92;;;10.02;;
59824;SDS011;45703;50.898;6.054;2023-05-10T01:11:35;16.85;;;9.43;;
59824;SDS011;45703;50.898;6.054;2023-05-10T01:14:02;16.92;;;9.98;;
59824;SDS011;45703;50.898;6.054;2023-05-10T01:16:29;16.27;;;9.10;;
59824;SDS011;45703;50.898;6.054;2023-05-10T01:18:59;17.67;;;10.10;;
59824;SDS011;45703;50.898;6.054;2023-05-10T01:29:39;14.90;;;8.85;;
59824;SDS011;45703;50.898;6.054;2023-05-10T01:32:16;16.08;;;9.98;;
59824;SDS011;45703;50.898;6.054;2023-05-10T01:35:00;16.80;;;9.40;;
59824;SDS011;45703;50.898;6.054;2023-05-10T01:40:35;14.75;;;9.38;;
59824;SDS011;45703;50.898;6.054;2023-05-10T01:43:06;15.57;;;9.75;;
59824;SDS011;45703;50.898;6.054;2023-05-10T01:48:38;16.48;;;9.93;;
59824;SDS011;45703;50.898;6.054;2023-05-10T01:51:11;15.88;;;9.38;;
59824;SDS011;45703;50.898;6.054;2023-05-10T01:53:40;15.75;;;9.82;;
59824;SDS011;45703;50.898;6.054;2023-05-10T01:56:09;14.38;;;9.23;;
59824;SDS011;45703;50.898;6.054;2023-05-10T01:58:36;14.65;;;8.95;;
59824;SDS011;45703;50.898;6.054;2023-05-10T02:01:05;14.15;;;8.95;;
59824;SDS011;45703;50.898;6.054;2023-05-10T02:03:33;13.85;;;8.68;;
59824;SDS011;45703;50.898;6.054;2023-05-10T02:06:01;13.10;;;7.72;;
59824;SDS011;45703;50.898;6.054;2023-05-10T02:08:29;12.50;;;7.57;;
59824;SDS011;45703;50.898;6.054;2023-05-10T02:10:56;12.30;;;7.53;;
59824;SDS011;45703;50.898;6.054;2023-05-10T02:13:24;12.05;;;6.88;;
59824;SDS011;45703;50.898;6.054;2023-05-10T02:15:52;13.07;;;7.03;;
59824;SDS011;45703;50.898;6.054;2023-05-10T02:18:19;11.73;;;6.90;;
59824;SDS011;45703;50.898;6.054;2023-05-10T02:20:46;11.90;;;6.88;;
59824;SDS011;45703;50.898;6.054;2023-05-10T02:23:13;13.20;;;6.55;;
59824;SDS011;45703;50.898;6.054;2023-05-10T02:25:39;11.73;;;7.03;;
59824;SDS011;45703;50.898;6.054;2023-05-10T02:28:07;12.45;;;7.22;;
59824;SDS011;45703;50.898;6.054;2023-05-10T02:30:35;11.82;;;6.35;;
59824;SDS011;45703;50.898;6.054;2023-05-10T02:33:01;12.05;;;6.90;;
59824;SDS011;45703;50.898;6.054;2023-05-10T02:35:30;12.45;;;6.70;;
59824;SDS011;45703;50.898;6.054;2023-05-10T02:37:58;10.65;;;5.95;;
59824;SDS011;45703;50.898;6.054;2023-05-10T02:40:24;11.30;;;6.50;;
59824;SDS011;45703;50.898;6.054;2023-05-10T02:42:52;12.30;;;6.72;;
59824;SDS011;45703;50.898;6.054;2023-05-10T02:45:21;14.00;;;6.43;;
59824;SDS011;45703;50.898;6.054;2023-05-10T02:47:51;13.45;;;6.93;;
59824;SDS011;45703;50.898;6.054;2023-05-10T02:50:17;12.90;;;7.30;;
59824;SDS011;45703;50.898;6.054;2023-05-10T02:52:44;12.80;;;7.13;;
59824;SDS011;45703;50.898;6.054;2023-05-10T02:55:14;13.25;;;7.57;;
59824;SDS011;45703;50.898;6.054;2023-05-10T02:57:43;13.95;;;7.70;;
59824;SDS011;45703;50.898;6.054;2023-05-10T03:00:15;15.50;;;8.10;;
59824;SDS011;45703;50.898;6.054;2023-05-10T03:02:41;16.15;;;8.35;;
59824;SDS011;45703;50.898;6.054;2023-05-10T03:05:06;15.48;;;8.45;;
59824;SDS011;45703;50.898;6.054;2023-05-10T03:07:32;15.77;;;8.73;;
59824;SDS011;45703;50.898;6.054;2023-05-10T03:09:58;16.05;;;9.15;;
59824;SDS011;45703;50.898;6.054;2023-05-10T03:15:11;17.15;;;9.52;;
59824;SDS011;45703;50.898;6.054;2023-05-10T03:17:50;16.75;;;8.48;;
59824;SDS011;45703;50.898;6.054;2023-05-10T03:20:21;15.80;;;8.77;;
59824;SDS011;45703;50.898;6.054;2023-05-10T03:22:55;15.80;;;8.45;;
59824;SDS011;45703;50.898;6.054;2023-05-10T03:25:27;16.27;;;9.52;;
59824;SDS011;45703;50.898;6.054;2023-05-10T03:27:56;17.10;;;9.43;;
59824;SDS011;45703;50.898;6.054;2023-05-10T03:30:22;18.92;;;9.10;;
59824;SDS011;45703;50.898;6.054;2023-05-10T03:32:49;19.95;;;10.52;;
59824;SDS011;45703;50.898;6.054;2023-05-10T03:35:14;17.23;;;10.02;;
59824;SDS011;45703;50.898;6.054;2023-05-10T03:37:40;17.55;;;9.40;;
59824;SDS011;45703;50.898;6.054;2023-05-10T03:40:05;19.17;;;9.57;;
59824;SDS011;45703;50.898;6.054;2023-05-10T03:42:31;17.60;;;9.75;;
59824;SDS011;45703;50.898;6.054;2023-05-10T03:44:57;20.73;;;10.40;;
59824;SDS011;45703;50.898;6.054;2023-05-10T03:47:22;20.42;;;10.25;;
59824;SDS011;45703;50.898;6.054;2023-05-10T03:49:48;17.15;;;9.50;;
59824;SDS011;45703;50.898;6.054;2023-05-10T03:52:13;19.20;;;9.65;;
59824;SDS011;45703;50.898;6.054;2023-05-10T03:54:38;19.70;;;9.90;;
59824;SDS011;45703;50.898;6.054;2023-05-10T03:57:04;19.95;;;9.77;;
59824;SDS011;45703;50.898;6.054;2023-05-10T03:59:29;21.40;;;9.45;;
59824;SDS011;45703;50.898;6.054;2023-05-10T04:01:55;19.92;;;10.02;;
59824;SDS011;45703;50.898;6.054;2023-05-10T04:04:21;19.02;;;8.82;;
59824;SDS011;45703;50.898;6.054;2023-05-10T04:06:47;18.33;;;9.27;;
59824;SDS011;45703;50.898;6.054;2023-05-10T04:09:12;16.60;;;8.82;;
59824;SDS011;45703;50.898;6.054;2023-05-10T04:11:37;16.77;;;9.10;;
59824;SDS011;45703;50.898;6.054;2023-05-10T04:14:03;15.68;;;8.43;;
59824;SDS011;45703;50.898;6.054;2023-05-10T04:16:28;16.40;;;9.50;;
59824;SDS011;45703;50.898;6.054;2023-05-10T04:18:54;16.88;;;8.95;;
59824;SDS011;45703;50.898;6.054;2023-05-10T04:21:19;18.60;;;8.45;;
59824;SDS011;45703;50.898;6.054;2023-05-10T04:23:45;18.85;;;8.32;;
59824;SDS011;45703;50.898;6.054;2023-05-10T04:26:10;17.23;;;8.55;;
59824;SDS011;45703;50.898;6.054;2023-05-10T04:28:35;18.20;;;8.50;;
59824;SDS011;45703;50.898;6.054;2023-05-10T04:31:02;22.23;;;9.45;;
59824;SDS011;45703;50.898;6.054;2023-05-10T04:33:31;17.23;;;8.43;;
59824;SDS011;45703;50.898;6.054;2023-05-10T04:35:56;18.27;;;9.02;;
59824;SDS011;45703;50.898;6.054;2023-05-10T04:38:22;17.13;;;8.98;;
59824;SDS011;45703;50.898;6.054;2023-05-10T04:40:47;17.13;;;8.85;;
59824;SDS011;45703;50.898;6.054;2023-05-10T04:43:13;17.80;;;9.55;;
59824;SDS011;45703;50.898;6.054;2023-05-10T04:45:38;19.08;;;9.38;;
59824;SDS011;45703;50.898;6.054;2023-05-10T04:48:03;18.77;;;8.98;;
59824;SDS011;45703;50.898;6.054;2023-05-10T04:50:29;20.15;;;9.90;;
59824;SDS011;45703;50.898;6.054;2023-05-10T04:52:55;19.30;;;10.75;;
59824;SDS011;45703;50.898;6.054;2023-05-10T04:55:20;16.95;;;9.25;;
59824;SDS011;45703;50.898;6.054;2023-05-10T04:57:46;19.30;;;10.05;;
59824;SDS011;45703;50.898;6.054;2023-05-10T05:00:11;18.85;;;9.98;;
59824;SDS011;45703;50.898;6.054;2023-05-10T05:02:37;22.35;;;10.00;;
59824;SDS011;45703;50.898;6.054;2023-05-10T05:05:03;18.45;;;9.55;;
59824;SDS011;45703;50.898;6.054;2023-05-10T05:07:29;20.25;;;10.68;;
59824;SDS011;45703;50.898;6.054;2023-05-10T05:09:55;17.77;;;8.95;;
59824;SDS011;45703;50.898;6.054;2023-05-10T05:12:21;18.10;;;9.35;;
59824;SDS011;45703;50.898;6.054;2023-05-10T05:14:46;18.33;;;9.43;;
59824;SDS011;45703;50.898;6.054;2023-05-10T05:17:11;17.70;;;9.50;;
59824;SDS011;45703;50.898;6.054;2023-05-10T05:19:37;15.75;;;9.25;;
59824;SDS011;45703;50.898;6.054;2023-05-10T05:22:02;19.58;;;10.10;;
59824;SDS011;45703;50.898;6.054;2023-05-10T05:24:28;18.45;;;8.85;;
59824;SDS011;45703;50.898;6.054;2023-05-10T05:26:53;16.60;;;9.63;;
59824;SDS011;45703;50.898;6.054;2023-05-10T05:29:18;16.77;;;9.07;;
59824;SDS011;45703;50.898;6.054;2023-05-10T05:31:44;16.70;;;8.98;;
59824;SDS011;45703;50.898;6.054;2023-05-10T05:34:09;16.95;;;9.30;;
59824;SDS011;45703;50.898;6.054;2023-05-10T05:36:37;15.65;;;8.88;;
59824;SDS011;45703;50.898;6.054;2023-05-10T05:39:03;14.95;;;8.30;;
59824;SDS011;45703;50.898;6.054;2023-05-10T05:41:28;14.88;;;8.23;;
59824;SDS011;45703;50.898;6.054;2023-05-10T05:43:54;14.35;;;7.95;;
59824;SDS011;45703;50.898;6.054;2023-05-10T05:46:19;15.20;;;7.88;;
59824;SDS011;45703;50.898;6.054;2023-05-10T05:48:45;13.80;;;7.45;;
59824;SDS011;45703;50.898;6.054;2023-05-10T05:51:10;13.82;;;7.57;;
59824;SDS011;45703;50.898;6.054;2023-05-10T05:53:36;14.18;;;6.53;;
59824;SDS011;45703;50.898;6.054;2023-05-10T05:56:01;13.85;;;6.53;;
59824;SDS011;45703;50.898;6.054;2023-05-10T05:58:27;12.93;;;6.32;;
59824;SDS011;45703;50.898;6.054;2023-05-10T06:00:53;11.32;;;5.13;;
59824;SDS011;45703;50.898;6.054;2023-05-10T06:03:19;11.07;;;5.15;;
59824;SDS011;45703;50.898;6.054;2023-05-10T06:05:44;11.90;;;5.45;;
59824;SDS011;45703;50.898;6.054;2023-05-10T06:08:10;12.05;;;5.75;;
59824;SDS011;45703;50.898;6.054;2023-05-10T06:10:35;11.50;;;5.97;;
59824;SDS011;45703;50.898;6.054;2023-05-10T06:13:01;11.02;;;5.45;;
59824;SDS011;45703;50.898;6.054;2023-05-10T06:15:27;12.35;;;6.43;;
59824;SDS011;45703;50.898;6.054;2023-05-10T06:17:52;13.18;;;5.55;;
59824;SDS011;45703;50.898;6.054;2023-05-10T06:20:18;12.38;;;6.18;;
59824;SDS011;45703;50.898;6.054;2023-05-10T06:22:43;9.95;;;5.35;;
59824;SDS011;45703;50.898;6.054;2023-05-10T06:25:09;11.55;;;6.10;;
59824;SDS011;45703;50.898;6.054;2023-05-10T06:27:34;13.18;;;7.10;;
59824;SDS011;45703;50.898;6.054;2023-05-10T06:30:00;12.82;;;6.53;;
59824;SDS011;45703;50.898;6.054;2023-05-10T06:32:25;14.10;;;6.32;;
59824;SDS011;45703;50.898;6.054;2023-05-10T06:34:51;12.68;;;6.88;;
59824;SDS011;45703;50.898;6.054;2023-05-10T06:37:17;13.07;;;6.50;;
59824;SDS011;45703;50.898;6.054;2023-05-10T06:39:42;11.82;;;6.10;;
59824;SDS011;45703;50.898;6.054;2023-05-10T06:42:08;12.27;;;6.57;;
59824;SDS011;45703;50.898;6.054;2023-05-10T06:44:34;13.13;;;7.03;;
59824;SDS011;45703;50.898;6.054;2023-05-10T06:46:59;11.85;;;5.88;;
59824;SDS011;45703;50.898;6.054;2023-05-10T06:49:25;11.13;;;5.75;;
59824;SDS011;45703;50.898;6.054;2023-05-10T06:51:50;11.07;;;5.75;;
59824;SDS011;45703;50.898;6.054;2023-05-10T06:54:16;10.57;;;5.05;;
59824;SDS011;45703;50.898;6.054;2023-05-10T06:56:41;10.88;;;5.10;;
59824;SDS011;45703;50.898;6.054;2023-05-10T06:59:07;10.55;;;4.63;;
59824;SDS011;45703;50.898;6.054;2023-05-10T07:01:32;10.55;;;4.75;;
59824;SDS011;45703;50.898;6.054;2023-05-10T07:03:57;12.45;;;5.50;;
59824;SDS011;45703;50.898;6.054;2023-05-10T07:06:23;10.70;;;5.45;;
59824;SDS011;45703;50.898;6.054;2023-05-10T07:08:48;10.77;;;5.20;;
59824;SDS011;45703;50.898;6.054;2023-05-10T07:11:14;10.55;;;5.47;;
59824;SDS011;45703;50.898;6.054;2023-05-10T07:13:39;13.05;;;6.20;;
59824;SDS011;45703;50.898;6.054;2023-05-10T07:16:08;14.43;;;6.70;;
59824;SDS011;45703;50.898;6.054;2023-05-10T07:18:35;16.95;;;8.02;;
59824;SDS011;45703;50.898;6.054;2023-05-10T07:21:00;17.60;;;7.97;;
59824;SDS011;45703;50.898;6.054;2023-05-10T07:23:26;17.25;;;8.43;;
59824;SDS011;45703;50.898;6.054;2023-05-10T07:25:52;20.65;;;9.85;;
59824;SDS011;45703;50.898;6.054;2023-05-10T07:28:17;19.00;;;9.32;;
59824;SDS011;45703;50.898;6.054;2023-05-10T07:30:43;23.77;;;12.35;;
59824;SDS011;45703;50.898;6.054;2023-05-10T07:33:09;25.30;;;10.95;;
59824;SDS011;45703;50.898;6.054;2023-05-10T07:35:36;23.48;;;12.20;;
59824;SDS011;45703;50.898;6.054;2023-05-10T07:38:01;24.83;;;11.95;;
59824;SDS011;45703;50.898;6.054;2023-05-10T07:40:27;24.88;;;12.05;;
59824;SDS011;45703;50.898;6.054;2023-05-10T07:42:53;31.13;;;14.25;;
59824;SDS011;45703;50.898;6.054;2023-05-10T07:45:19;28.05;;;13.65;;
59824;SDS011;45703;50.898;6.054;2023-05-10T07:47:45;26.88;;;13.80;;
59824;SDS011;45703;50.898;6.054;2023-05-10T07:50:10;26.98;;;13.63;;
59824;SDS011;45703;50.898;6.054;2023-05-10T07:52:35;28.83;;;14.80;;
59824;SDS011;45703;50.898;6.054;2023-05-10T07:55:01;30.65;;;13.77;;
59824;SDS011;45703;50.898;6.054;2023-05-10T07:57:26;27.55;;;13.77;;
59824;SDS011;45703;50.898;6.054;2023-05-10T07:59:52;27.13;;;13.20;;
59824;SDS011;45703;50.898;6.054;2023-05-10T08:02:17;28.60;;;12.75;;
59824;SDS011;45703;50.898;6.054;2023-05-10T08:04:42;23.98;;;12.32;;
59824;SDS011;45703;50.898;6.054;2023-05-10T08:07:08;25.15;;;12.20;;
59824;SDS011;45703;50.898;6.054;2023-05-10T08:09:33;27.95;;;12.48;;
59824;SDS011;45703;50.898;6.054;2023-05-10T08:11:58;25.98;;;12.55;;
59824;SDS011;45703;50.898;6.054;2023-05-10T08:14:25;26.13;;;12.23;;
59824;SDS011;45703;50.898;6.054;2023-05-10T08:16:50;26.80;;;12.70;;
59824;SDS011;45703;50.898;6.054;2023-05-10T08:19:16;27.75;;;13.63;;
59824;SDS011;45703;50.898;6.054;2023-05-10T08:21:44;27.67;;;13.23;;
59824;SDS011;45703;50.898;6.054;2023-05-10T08:24:10;28.25;;;13.00;;
59824;SDS011;45703;50.898;6.054;2023-05-10T08:26:36;28.45;;;13.30;;
59824;SDS011;45703;50.898;6.054;2023-05-10T08:29:01;27.10;;;12.23;;
59824;SDS011;45703;50.898;6.054;2023-05-10T08:31:27;25.08;;;11.98;;
59824;SDS011;45703;50.898;6.054;2023-05-10T08:33:52;26.73;;;11.98;;
59824;SDS011;45703;50.898;6.054;2023-05-10T08:36:18;30.42;;;13.63;;
59824;SDS011;45703;50.898;6.054;2023-05-10T08:38:46;26.73;;;11.82;;
59824;SDS011;45703;50.898;6.054;2023-05-10T08:41:15;24.65;;;11.63;;
59824;SDS011;45703;50.898;6.054;2023-05-10T08:43:40;23.48;;;11.43;;
59824;SDS011;45703;50.898;6.054;2023-05-10T08:46:11;18.63;;;9.77;;
59824;SDS011;45703;50.898;6.054;2023-05-10T08:48:40;16.95;;;9.00;;
59824;SDS011;45703;50.898;6.054;2023-05-10T08:51:06;15.63;;;6.88;;
59824;SDS011;45703;50.898;6.054;2023-05-10T08:53:33;12.65;;;6.18;;
59824;SDS011;45703;50.898;6.054;2023-05-10T08:56:02;11.70;;;5.65;;
59824;SDS011;45703;50.898;6.054;2023-05-10T08:58:28;11.18;;;5.13;;
59824;SDS011;45703;50.898;6.054;2023-05-10T09:00:54;10.07;;;4.40;;
59824;SDS011;45703;50.898;6.054;2023-05-10T09:03:20;11.43;;;5.28;;
59824;SDS011;45703;50.898;6.054;2023-05-10T09:05:45;10.32;;;4.53;;
59824;SDS011;45703;50.898;6.054;2023-05-10T09:08:11;10.15;;;4.38;;
59824;SDS011;45703;50.898;6.054;2023-05-10T09:10:38;10.45;;;4.25;;
59824;SDS011;45703;50.898;6.054;2023-05-10T09:13:05;10.15;;;4.65;;
59824;SDS011;45703;50.898;6.054;2023-05-10T09:15:31;10.10;;;4.82;;
59824;SDS011;45703;50.898;6.054;2023-05-10T09:17:57;9.55;;;4.53;;
59824;SDS011;45703;50.898;6.054;2023-05-10T09:20:24;10.10;;;4.55;;
59824;SDS011;45703;50.898;6.054;2023-05-10T09:22:49;9.70;;;4.43;;
59824;SDS011;45703;50.898;6.054;2023-05-10T09:25:15;10.63;;;4.18;;
59824;SDS011;45703;50.898;6.054;2023-05-10T09:27:44;9.60;;;4.05;;
59824;SDS011;45703;50.898;6.054;2023-05-10T09:30:15;9.00;;;3.08;;
59824;SDS011;45703;50.898;6.054;2023-05-10T09:32:49;7.55;;;2.88;;
59824;SDS011;45703;50.898;6.054;2023-05-10T09:35:16;8.38;;;3.30;;
59824;SDS011;45703;50.898;6.054;2023-05-10T09:37:44;9.25;;;3.40;;
59824;SDS011;45703;50.898;6.054;2023-05-10T09:45:36;7.90;;;3.00;;
59824;SDS011;45703;50.898;6.054;2023-05-10T09:48:02;9.02;;;3.45;;
59824;SDS011;45703;50.898;6.054;2023-05-10T09:50:28;9.73;;;3.60;;
59824;SDS011;45703;50.898;6.054;2023-05-10T09:52:55;8.65;;;3.60;;
59824;SDS011;45703;50.898;6.054;2023-05-10T09:55:26;9.57;;;3.40;;
59824;SDS011;45703;50.898;6.054;2023-05-10T09:58:02;9.82;;;3.40;;
59824;SDS011;45703;50.898;6.054;2023-05-10T10:00:34;8.98;;;3.70;;
59824;SDS011;45703;50.898;6.054;2023-05-10T10:03:00;9.20;;;4.68;;
59824;SDS011;45703;50.898;6.054;2023-05-10T10:05:30;9.93;;;4.10;;
59824;SDS011;45703;50.898;6.054;2023-05-10T10:07:59;9.07;;;4.00;;
59824;SDS011;45703;50.898;6.054;2023-05-10T10:10:25;10.43;;;4.03;;
59824;SDS011;45703;50.898;6.054;2023-05-10T10:12:52;10.43;;;4.55;;
59824;SDS011;45703;50.898;6.054;2023-05-10T10:15:18;10.88;;;4.82;;
59824;SDS011;45703;50.898;6.054;2023-05-10T10:17:45;9.43;;;4.00;;
59824;SDS011;45703;50.898;6.054;2023-05-10T10:20:11;9.98;;;4.40;;
59824;SDS011;45703;50.898;6.054;2023-05-10T10:22:37;9.68;;;3.90;;
59824;SDS011;45703;50.898;6.054;2023-05-10T10:25:03;9.73;;;4.35;;
59824;SDS011;45703;50.898;6.054;2023-05-10T10:35:45;11.32;;;5.13;;
59824;SDS011;45703;50.898;6.054;2023-05-10T10:38:12;11.35;;;5.55;;
59824;SDS011;45703;50.898;6.054;2023-05-10T10:40:38;9.80;;;4.53;;
59824;SDS011;45703;50.898;6.054;2023-05-10T10:48:38;10.15;;;4.90;;
59824;SDS011;45703;50.898;6.054;2023-05-10T10:51:04;11.55;;;5.60;;
59824;SDS011;45703;50.898;6.054;2023-05-10T10:53:29;10.90;;;5.63;;
59824;SDS011;45703;50.898;6.054;2023-05-10T10:56:05;12.40;;;6.05;;
59824;SDS011;45703;50.898;6.054;2023-05-10T10:58:35;9.35;;;4.53;;
59824;SDS011;45703;50.898;6.054;2023-05-10T11:03:40;10.23;;;4.88;;
59824;SDS011;45703;50.898;6.054;2023-05-10T11:06:28;10.68;;;4.78;;
59824;SDS011;45703;50.898;6.054;2023-05-10T11:08:56;10.70;;;4.50;;
59824;SDS011;45703;50.898;6.054;2023-05-10T11:11:22;9.00;;;4.20;;
59824;SDS011;45703;50.898;6.054;2023-05-10T11:13:48;8.93;;;4.25;;
59824;SDS011;45703;50.898;6.054;2023-05-10T11:18:40;9.77;;;4.57;;
59824;SDS011;45703;50.898;6.054;2023-05-10T11:21:16;9.13;;;3.95;;
59824;SDS011;45703;50.898;6.054;2023-05-10T11:26:10;9.57;;;4.03;;
59824;SDS011;45703;50.898;6.054;2023-05-10T11:28:46;8.55;;;4.03;;
59824;SDS011;45703;50.898;6.054;2023-05-10T11:31:13;9.88;;;4.40;;
59824;SDS011;45703;50.898;6.054;2023-05-10T11:33:46;9.27;;;4.25;;
59824;SDS011;45703;50.898;6.054;2023-05-10T11:36:15;8.82;;;4.05;;
59824;SDS011;45703;50.898;6.054;2023-05-10T11:41:09;9.43;;;4.28;;
59824;SDS011;45703;50.898;6.054;2023-05-10T11:43:41;9.27;;;4.13;;
59824;SDS011;45703;50.898;6.054;2023-05-10T11:46:07;9.80;;;4.40;;
59824;SDS011;45703;50.898;6.054;2023-05-10T11:48:35;9.20;;;4.50;;
59824;SDS011;45703;50.898;6.054;2023-05-10T11:51:01;8.38;;;4.00;;
59824;SDS011;45703;50.898;6.054;2023-05-10T11:53:29;10.18;;;4.25;;
59824;SDS011;45703;50.898;6.054;2023-05-10T11:56:02;9.18;;;3.90;;
59824;SDS011;45703;50.898;6.054;2023-05-10T11:58:28;9.00;;;3.92;;
59824;SDS011;45703;50.898;6.054;2023-05-10T12:00:53;9.25;;;4.05;;
59824;SDS011;45703;50.898;6.054;2023-05-10T12:03:19;9.15;;;4.35;;
59824;SDS011;45703;50.898;6.054;2023-05-10T12:05:44;9.30;;;4.30;;
59824;SDS011;45703;50.898;6.054;2023-05-10T12:08:10;9.30;;;4.43;;
59824;SDS011;45703;50.898;6.054;2023-05-10T12:10:39;9.80;;;4.63;;
59824;SDS011;45703;50.898;6.054;2023-05-10T12:13:05;9.10;;;4.20;;
59824;SDS011;45703;50.898;6.054;2023-05-10T12:15:35;8.82;;;3.55;;
59824;SDS011;45703;50.898;6.054;2023-05-10T12:18:00;8.25;;;3.22;;
59824;SDS011;45703;50.898;6.054;2023-05-10T12:20:27;8.25;;;3.47;;
59824;SDS011;45703;50.898;6.054;2023-05-10T12:22:54;7.55;;;2.70;;
59824;SDS011;45703;50.898;6.054;2023-05-10T12:25:21;7.10;;;3.17;;
59824;SDS011;45703;50.898;6.054;2023-05-10T12:27:51;8.85;;;3.38;;
59824;SDS011;45703;50.898;6.054;2023-05-10T12:30:22;7.32;;;3.13;;
59824;SDS011;45703;50.898;6.054;2023-05-10T12:32:48;7.35;;;3.50;;
59824;SDS011;45703;50.898;6.054;2023-05-10T12:35:14;7.30;;;3.10;;
59824;SDS011;45703;50.898;6.054;2023-05-10T12:37:40;8.90;;;3.70;;
59824;SDS011;45703;50.898;6.054;2023-05-10T12:40:09;7.30;;;2.90;;
59824;SDS011;45703;50.898;6.054;2023-05-10T12:42:36;8.32;;;3.20;;
59824;SDS011;45703;50.898;6.054;2023-05-10T12:45:03;9.93;;;3.38;;
59824;SDS011;45703;50.898;6.054;2023-05-10T12:47:29;8.65;;;3.63;;
59824;SDS011;45703;50.898;6.054;2023-05-10T12:49:55;8.95;;;3.40;;
59824;SDS011;45703;50.898;6.054;2023-05-10T12:52:20;8.80;;;3.58;;
59824;SDS011;45703;50.898;6.054;2023-05-10T12:54:46;6.63;;;2.75;;
59824;SDS011;45703;50.898;6.054;2023-05-10T12:57:12;6.82;;;2.83;;
59824;SDS011;45703;50.898;6.054;2023-05-10T12:59:38;7.43;;;3.05;;
59824;SDS011;45703;50.898;6.054;2023-05-10T13:02:03;7.05;;;2.70;;
59824;SDS011;45703;50.898;6.054;2023-05-10T13:04:29;7.80;;;2.75;;
59824;SDS011;45703;50.898;6.054;2023-05-10T13:06:55;7.68;;;2.92;;
59824;SDS011;45703;50.898;6.054;2023-05-10T13:09:27;8.60;;;3.13;;
59824;SDS011;45703;50.898;6.054;2023-05-10T13:11:54;7.18;;;3.00;;
59824;SDS011;45703;50.898;6.054;2023-05-10T13:14:20;8.55;;;2.75;;
59824;SDS011;45703;50.898;6.054;2023-05-10T13:16:46;8.48;;;2.90;;
59824;SDS011;45703;50.898;6.054;2023-05-10T13:19:12;6.95;;;2.47;;
59824;SDS011;45703;50.898;6.054;2023-05-10T13:21:38;7.10;;;2.88;;
59824;SDS011;45703;50.898;6.054;2023-05-10T13:24:05;6.00;;;2.38;;
59824;SDS011;45703;50.898;6.054;2023-05-10T13:26:31;6.47;;;2.42;;
59824;SDS011;45703;50.898;6.054;2023-05-10T13:28:57;7.15;;;2.97;;
59824;SDS011;45703;50.898;6.054;2023-05-10T13:31:22;8.35;;;3.00;;
59824;SDS011;45703;50.898;6.054;2023-05-10T13:33:48;7.00;;;2.70;;
59824;SDS011;45703;50.898;6.054;2023-05-10T13:36:13;7.13;;;2.70;;
59824;SDS011;45703;50.898;6.054;2023-05-10T13:38:39;6.60;;;2.70;;
59824;SDS011;45703;50.898;6.054;2023-05-10T13:41:04;6.88;;;2.60;;
59824;SDS011;45703;50.898;6.054;2023-05-10T13:43:29;6.72;;;2.50;;
59824;SDS011;45703;50.898;6.054;2023-05-10T13:45:55;6.25;;;2.25;;
59824;SDS011;45703;50.898;6.054;2023-05-10T13:48:20;6.10;;;1.90;;
59824;SDS011;45703;50.898;6.054;2023-05-10T13:50:46;6.13;;;1.88;;
59824;SDS011;45703;50.898;6.054;2023-05-10T13:53:12;5.90;;;2.13;;
59824;SDS011;45703;50.898;6.054;2023-05-10T13:55:37;7.80;;;2.08;;
59824;SDS011;45703;50.898;6.054;2023-05-10T13:58:03;6.43;;;2.35;;
59824;SDS011;45703;50.898;6.054;2023-05-10T14:00:29;6.30;;;2.17;;
59824;SDS011;45703;50.898;6.054;2023-05-10T14:02:54;5.63;;;1.90;;
59824;SDS011;45703;50.898;6.054;2023-05-10T14:05:20;4.70;;;1.38;;
59824;SDS011;45703;50.898;6.054;2023-05-10T14:07:45;6.25;;;1.80;;
59824;SDS011;45703;50.898;6.054;2023-05-10T14:10:11;5.65;;;1.50;;
59824;SDS011;45703;50.898;6.054;2023-05-10T14:12:36;5.72;;;1.58;;
59824;SDS011;45703;50.898;6.054;2023-05-10T14:15:01;5.65;;;1.73;;
59824;SDS011;45703;50.898;6.054;2023-05-10T14:17:27;5.00;;;1.67;;
59824;SDS011;45703;50.898;6.054;2023-05-10T14:19:53;6.03;;;1.65;;
59824;SDS011;45703;50.898;6.054;2023-05-10T14:22:18;5.50;;;1.73;;
59824;SDS011;45703;50.898;6.054;2023-05-10T14:24:44;5.63;;;1.70;;
59824;SDS011;45703;50.898;6.054;2023-05-10T14:27:12;5.63;;;1.88;;
59824;SDS011;45703;50.898;6.054;2023-05-10T14:29:37;5.95;;;2.03;;
59824;SDS011;45703;50.898;6.054;2023-05-10T14:32:03;5.57;;;1.60;;
59824;SDS011;45703;50.898;6.054;2023-05-10T14:34:28;5.95;;;1.75;;
59824;SDS011;45703;50.898;6.054;2023-05-10T14:36:54;6.15;;;1.80;;
59824;SDS011;45703;50.898;6.054;2023-05-10T14:39:20;5.65;;;1.95;;
59824;SDS011;45703;50.898;6.054;2023-05-10T14:41:45;5.75;;;1.90;;
59824;SDS011;45703;50.898;6.054;2023-05-10T14:44:12;6.10;;;1.80;;
59824;SDS011;45703;50.898;6.054;2023-05-10T14:46:38;5.35;;;1.55;;
59824;SDS011;45703;50.898;6.054;2023-05-10T14:49:04;4.97;;;1.90;;
59824;SDS011;45703;50.898;6.054;2023-05-10T14:51:29;5.68;;;1.77;;
59824;SDS011;45703;50.898;6.054;2023-05-10T14:53:56;5.68;;;1.83;;
59824;SDS011;45703;50.898;6.054;2023-05-10T14:56:22;5.47;;;1.83;;
59824;SDS011;45703;50.898;6.054;2023-05-10T14:58:49;5.78;;;1.98;;
59824;SDS011;45703;50.898;6.054;2023-05-10T15:01:15;5.85;;;2.00;;
59824;SDS011;45703;50.898;6.054;2023-05-10T15:03:40;5.45;;;1.70;;
59824;SDS011;45703;50.898;6.054;2023-05-10T15:06:05;4.82;;;1.58;;
59824;SDS011;45703;50.898;6.054;2023-05-10T15:08:32;5.75;;;1.73;;
59824;SDS011;45703;50.898;6.054;2023-05-10T15:10:58;5.20;;;1.50;;
59824;SDS011;45703;50.898;6.054;2023-05-10T15:13:23;3.97;;;1.20;;
59824;SDS011;45703;50.898;6.054;2023-05-10T15:15:49;5.00;;;1.30;;
59824;SDS011;45703;50.898;6.054;2023-05-10T15:18:14;4.60;;;1.30;;
59824;SDS011;45703;50.898;6.054;2023-05-10T15:20:40;5.40;;;1.40;;